sensor_id;sensor_type;location;lat;lon;timestamp;pressure;altitude;pressure_sealevel;temperature;humidity
44297;BME280;51842;47.450;8.654;2023-02-15T00:00:08;96770.88;;;-1.66;100.00
44297;BME280;51842;47.450;8.654;2023-02-15T00:02:36;96766.78;;;-1.68;100.00
44297;BME280;51842;47.450;8.654;2023-02-15T00:05:08;96763.00;;;-1.74;100.00
44297;BME280;51842;47.450;8.654;2023-02-15T00:07:34;96759.72;;;-1.76;100.00
44297;BME280;51842;47.450;8.654;2023-02-15T00:10:06;96765.25;;;-1.79;100.00
44297;BME280;51842;47.450;8.654;2023-02-15T00:12:39;96761.41;;;-2.01;100.00
44297;BME280;51842;47.450;8.654;2023-02-15T00:15:08;96761.72;;;-2.04;100.00
44297;BME280;51842;47.450;8.654;2023-02-15T00:17:34;96765.81;;;-2.01;100.00
44297;BME280;51842;47.450;8.654;2023-02-15T00:20:07;96770.91;;;-2.00;100.00
44297;BME280;51842;47.450;8.654;2023-02-15T00:22:36;96771.09;;;-1.93;100.00
44297;BME280;51842;47.450;8.654;2023-02-15T00:25:01;96765.88;;;-1.93;100.00
44297;BME280;51842;47.450;8.654;2023-02-15T00:27:30;96769.25;;;-2.01;100.00
44297;BME280;51842;47.450;8.654;2023-02-15T00:29:56;96765.38;;;-1.97;100.00
44297;BME280;51842;47.450;8.654;2023-02-15T00:32:22;96758.16;;;-2.03;100.00
44297;BME280;51842;47.450;8.654;2023-02-15T00:34:57;96763.22;;;-2.01;100.00
44297;BME280;51842;47.450;8.654;2023-02-15T00:37:28;96753.75;;;-2.02;100.00
44297;BME280;51842;47.450;8.654;2023-02-15T00:39:57;96767.78;;;-2.03;100.00
44297;BME280;51842;47.450;8.654;2023-02-15T00:42:26;96765.81;;;-2.10;100.00
44297;BME280;51842;47.450;8.654;2023-02-15T00:44:52;96764.00;;;-2.09;100.00
44297;BME280;51842;47.450;8.654;2023-02-15T00:47:20;96759.25;;;-2.14;100.00
44297;BME280;51842;47.450;8.654;2023-02-15T00:49:46;96764.63;;;-2.15;100.00
44297;BME280;51842;47.450;8.654;2023-02-15T00:52:12;96769.84;;;-2.15;100.00
44297;BME280;51842;47.450;8.654;2023-02-15T00:54:38;96771.97;;;-2.19;100.00
44297;BME280;51842;47.450;8.654;2023-02-15T00:57:17;96768.84;;;-2.22;100.00
44297;BME280;51842;47.450;8.654;2023-02-15T00:59:42;96769.00;;;-2.24;100.00
44297;BME280;51842;47.450;8.654;2023-02-15T01:02:08;96762.28;;;-2.26;100.00
44297;BME280;51842;47.450;8.654;2023-02-15T01:04:40;96759.03;;;-2.28;100.00
44297;BME280;51842;47.450;8.654;2023-02-15T01:07:09;96761.63;;;-2.28;100.00
44297;BME280;51842;47.450;8.654;2023-02-15T01:09:38;96761.41;;;-2.35;100.00
44297;BME280;51842;47.450;8.654;2023-02-15T01:12:04;96767.28;;;-2.41;100.00
44297;BME280;51842;47.450;8.654;2023-02-15T01:14:30;96763.31;;;-2.45;100.00
44297;BME280;51842;47.450;8.654;2023-02-15T01:16:55;96766.44;;;-2.42;100.00
44297;BME280;51842;47.450;8.654;2023-02-15T01:19:21;96769.03;;;-2.42;100.00
44297;BME280;51842;47.450;8.654;2023-02-15T01:21:47;96771.97;;;-2.45;100.00
44297;BME280;51842;47.450;8.654;2023-02-15T01:24:22;96769.34;;;-2.45;100.00
44297;BME280;51842;47.450;8.654;2023-02-15T01:26:51;96769.34;;;-2.45;100.00
44297;BME280;51842;47.450;8.654;2023-02-15T01:29:22;96773.94;;;-2.47;100.00
44297;BME280;51842;47.450;8.654;2023-02-15T01:31:48;96769.34;;;-2.45;100.00
44297;BME280;51842;47.450;8.654;2023-02-15T01:34:14;96769.03;;;-2.42;100.00
44297;BME280;51842;47.450;8.654;2023-02-15T01:36:40;96762.50;;;-2.46;100.00
44297;BME280;51842;47.450;8.654;2023-02-15T01:39:08;96761.69;;;-2.46;100.00
44297;BME280;51842;47.450;8.654;2023-02-15T01:41:36;96760.22;;;-2.49;100.00
44297;BME280;51842;47.450;8.654;2023-02-15T01:44:40;96762.63;;;-2.56;100.00
44297;BME280;51842;47.450;8.654;2023-02-15T01:46:53;96755.59;;;-2.55;100.00
44297;BME280;51842;47.450;8.654;2023-02-15T01:49:26;96755.78;;;-2.57;100.00
44297;BME280;51842;47.450;8.654;2023-02-15T01:51:53;96753.31;;;-2.58;100.00
44297;BME280;51842;47.450;8.654;2023-02-15T01:54:33;96751.81;;;-2.61;100.00
44297;BME280;51842;47.450;8.654;2023-02-15T01:57:12;96751.00;;;-2.61;100.00
44297;BME280;51842;47.450;8.654;2023-02-15T01:59:48;96754.09;;;-2.66;100.00
44297;BME280;51842;47.450;8.654;2023-02-15T02:02:21;96753.41;;;-2.68;100.00
44297;BME280;51842;47.450;8.654;2023-02-15T02:05:00;96755.63;;;-2.73;100.00
44297;BME280;51842;47.450;8.654;2023-02-15T02:07:42;96749.91;;;-2.76;100.00
44297;BME280;51842;47.450;8.654;2023-02-15T02:10:16;96746.34;;;-2.75;100.00
44297;BME280;51842;47.450;8.654;2023-02-15T02:12:47;96758.72;;;-2.77;100.00
44297;BME280;51842;47.450;8.654;2023-02-15T02:15:27;96752.38;;;-2.75;100.00
44297;BME280;51842;47.450;8.654;2023-02-15T02:18:23;96747.59;;;-2.80;100.00
44297;BME280;51842;47.450;8.654;2023-02-15T02:21:26;96746.78;;;-2.80;100.00
44297;BME280;51842;47.450;8.654;2023-02-15T02:41:49;96746.88;;;-2.72;100.00
44297;BME280;51842;47.450;8.654;2023-02-15T02:48:07;96745.88;;;-2.71;100.00
44297;BME280;51842;47.450;8.654;2023-02-15T02:50:41;96754.09;;;-2.66;100.00
44297;BME280;51842;47.450;8.654;2023-02-15T02:53:10;96751.31;;;-2.64;100.00
44297;BME280;51842;47.450;8.654;2023-02-15T02:55:52;96748.56;;;-2.63;100.00
44297;BME280;51842;47.450;8.654;2023-02-15T02:58:39;96737.81;;;-2.60;100.00
44297;BME280;51842;47.450;8.654;2023-02-15T03:01:48;96739.94;;;-2.55;100.00
44297;BME280;51842;47.450;8.654;2023-02-15T03:04:40;96737.50;;;-2.57;100.00
44297;BME280;51842;47.450;8.654;2023-02-15T03:07:21;96748.09;;;-2.58;100.00
44297;BME280;51842;47.450;8.654;2023-02-15T03:09:57;96746.16;;;-2.56;100.00
44297;BME280;51842;47.450;8.654;2023-02-15T03:12:36;96740.75;;;-2.54;100.00
44297;BME280;51842;47.450;8.654;2023-02-15T03:15:29;96735.41;;;-2.53;100.00
44297;BME280;51842;47.450;8.654;2023-02-15T03:18:24;96741.88;;;-2.57;100.00
44297;BME280;51842;47.450;8.654;2023-02-15T03:20:57;96748.91;;;-2.58;100.00
44297;BME280;51842;47.450;8.654;2023-02-15T03:23:28;96748.75;;;-2.56;100.00
44297;BME280;51842;47.450;8.654;2023-02-15T03:26:21;96744.66;;;-2.59;100.00
44297;BME280;51842;47.450;8.654;2023-02-15T03:28:59;96736.03;;;-2.59;100.00
44297;BME280;51842;47.450;8.654;2023-02-15T03:31:34;96740.25;;;-2.58;100.00
44297;BME280;51842;47.450;8.654;2023-02-15T03:34:10;96744.47;;;-2.65;100.00
44297;BME280;51842;47.450;8.654;2023-02-15T03:36:47;96742.16;;;-2.68;100.00
44297;BME280;51842;47.450;8.654;2023-02-15T03:39:22;96743.47;;;-2.64;100.00
44297;BME280;51842;47.450;8.654;2023-02-15T03:45:09;96742.97;;;-2.68;100.00
44297;BME280;51842;47.450;8.654;2023-02-15T03:47:45;96750.81;;;-2.86;100.00
44297;BME280;51842;47.450;8.654;2023-02-15T03:50:29;96741.31;;;-2.95;100.00
44297;BME280;51842;47.450;8.654;2023-02-15T03:53:20;96746.78;;;-3.06;100.00
44297;BME280;51842;47.450;8.654;2023-02-15T03:55:55;96744.59;;;-3.11;100.00
44297;BME280;51842;47.450;8.654;2023-02-15T03:58:27;96748.50;;;-3.15;100.00
44297;BME280;51842;47.450;8.654;2023-02-15T04:01:53;96754.69;;;-3.16;100.00
44297;BME280;51842;47.450;8.654;2023-02-15T04:04:39;96754.16;;;-3.19;100.00
44297;BME280;51842;47.450;8.654;2023-02-15T04:07:10;96751.25;;;-3.34;100.00
44297;BME280;51842;47.450;8.654;2023-02-15T04:09:36;96744.72;;;-3.38;100.00
44297;BME280;51842;47.450;8.654;2023-02-15T04:12:21;96743.38;;;-3.60;100.00
44297;BME280;51842;47.450;8.654;2023-02-15T04:14:50;96740.59;;;-3.59;100.00
44297;BME280;51842;47.450;8.654;2023-02-15T04:17:37;96748.56;;;-3.78;100.00
44297;BME280;51842;47.450;8.654;2023-02-15T04:20:10;96740.81;;;-3.88;100.00
44297;BME280;51842;47.450;8.654;2023-02-15T04:22:54;96746.25;;;-3.81;100.00
44297;BME280;51842;47.450;8.654;2023-02-15T04:25:38;96744.16;;;-3.78;100.00
44297;BME280;51842;47.450;8.654;2023-02-15T04:28:07;96743.34;;;-3.78;100.00
44297;BME280;51842;47.450;8.654;2023-02-15T04:30:33;96746.06;;;-3.80;100.00
44297;BME280;51842;47.450;8.654;2023-02-15T04:32:59;96742.81;;;-3.82;100.00
44297;BME280;51842;47.450;8.654;2023-02-15T04:35:25;96742.31;;;-3.85;100.00
44297;BME280;51842;47.450;8.654;2023-02-15T04:37:51;96734.09;;;-3.90;100.00
44297;BME280;51842;47.450;8.654;2023-02-15T04:40:27;96740.41;;;-3.93;100.00
44297;BME280;51842;47.450;8.654;2023-02-15T04:42:53;96735.66;;;-3.98;100.00
44297;BME280;51842;47.450;8.654;2023-02-15T04:45:25;96735.94;;;-4.01;100.00
44297;BME280;51842;47.450;8.654;2023-02-15T04:47:53;96734.88;;;-4.08;100.00
44297;BME280;51842;47.450;8.654;2023-02-15T04:50:22;96734.34;;;-4.11;100.00
44297;BME280;51842;47.450;8.654;2023-02-15T04:52:51;96737.38;;;-4.16;100.00
44297;BME280;51842;47.450;8.654;2023-02-15T04:55:17;96733.41;;;-4.20;100.00
44297;BME280;51842;47.450;8.654;2023-02-15T04:57:49;96734.84;;;-4.26;100.00
44297;BME280;51842;47.450;8.654;2023-02-15T05:00:24;96735.25;;;-4.30;100.00
44297;BME280;51842;47.450;8.654;2023-02-15T05:02:50;96740.63;;;-4.32;100.00
44297;BME280;51842;47.450;8.654;2023-02-15T05:05:22;96735.81;;;-4.36;100.00
44297;BME280;51842;47.450;8.654;2023-02-15T05:07:53;96732.84;;;-4.42;100.00
44297;BME280;51842;47.450;8.654;2023-02-15T05:10:20;96730.91;;;-4.39;100.00
44297;BME280;51842;47.450;8.654;2023-02-15T05:12:46;96730.25;;;-4.42;100.00
44297;BME280;51842;47.450;8.654;2023-02-15T05:15:12;96719.16;;;-4.44;100.00
44297;BME280;51842;47.450;8.654;2023-02-15T05:17:41;96721.22;;;-4.47;100.00
44297;BME280;51842;47.450;8.654;2023-02-15T05:20:07;96731.09;;;-4.51;100.00
44297;BME280;51842;47.450;8.654;2023-02-15T05:22:33;96729.72;;;-4.55;100.00
44297;BME280;51842;47.450;8.654;2023-02-15T05:24:59;96727.56;;;-4.59;100.00
44297;BME280;51842;47.450;8.654;2023-02-15T05:27:49;96728.94;;;-4.65;100.00
44297;BME280;51842;47.450;8.654;2023-02-15T05:30:34;96729.38;;;-4.70;100.00
44297;BME280;51842;47.450;8.654;2023-02-15T05:33:00;96727.19;;;-4.74;100.00
44297;BME280;51842;47.450;8.654;2023-02-15T05:35:32;96724.88;;;-4.77;100.00
44297;BME280;51842;47.450;8.654;2023-02-15T05:37:58;96729.53;;;-4.81;100.00
44297;BME280;51842;47.450;8.654;2023-02-15T05:40:27;96723.00;;;-4.85;100.00
44297;BME280;51842;47.450;8.654;2023-02-15T05:42:56;96724.91;;;-4.87;100.00
44297;BME280;51842;47.450;8.654;2023-02-15T05:45:30;96727.94;;;-4.92;100.00
44297;BME280;51842;47.450;8.654;2023-02-15T05:47:56;96727.38;;;-4.95;100.00
44297;BME280;51842;47.450;8.654;2023-02-15T05:50:26;96731.38;;;-5.01;100.00
44297;BME280;51842;47.450;8.654;2023-02-15T05:52:53;96726.44;;;-5.04;100.00
44297;BME280;51842;47.450;8.654;2023-02-15T05:55:28;96727.81;;;-5.09;100.00
44297;BME280;51842;47.450;8.654;2023-02-15T05:57:54;96727.28;;;-5.13;100.00
44297;BME280;51842;47.450;8.654;2023-02-15T06:00:20;96733.84;;;-5.09;100.00
44297;BME280;51842;47.450;8.654;2023-02-15T06:02:48;96734.66;;;-5.08;100.00
44297;BME280;51842;47.450;8.654;2023-02-15T06:05:14;96738.63;;;-5.14;100.00
44297;BME280;51842;47.450;8.654;2023-02-15T06:07:45;96740.56;;;-5.16;100.00
44297;BME280;51842;47.450;8.654;2023-02-15T06:10:12;96744.78;;;-5.15;100.00
44297;BME280;51842;47.450;8.654;2023-02-15T06:12:40;96742.19;;;-5.15;100.00
44297;BME280;51842;47.450;8.654;2023-02-15T06:15:09;96751.75;;;-5.16;100.00
44297;BME280;51842;47.450;8.654;2023-02-15T06:17:35;96751.22;;;-5.19;100.00
44297;BME280;51842;47.450;8.654;2023-02-15T06:20:01;96755.88;;;-5.23;100.00
44297;BME280;51842;47.450;8.654;2023-02-15T06:22:28;96752.84;;;-5.28;100.00
44297;BME280;51842;47.450;8.654;2023-02-15T06:24:54;96760.09;;;-5.31;100.00
44297;BME280;51842;47.450;8.654;2023-02-15T06:27:20;96763.25;;;-5.38;100.00
44297;BME280;51842;47.450;8.654;2023-02-15T06:29:48;96761.03;;;-5.42;100.00
44297;BME280;51842;47.450;8.654;2023-02-15T06:32:14;96763.25;;;-5.38;100.00
44297;BME280;51842;47.450;8.654;2023-02-15T06:34:40;96766.41;;;-5.34;100.00
44297;BME280;51842;47.450;8.654;2023-02-15T06:37:06;96769.53;;;-5.30;100.00
44297;BME280;51842;47.450;8.654;2023-02-15T06:39:34;96772.81;;;-5.28;100.00
44297;BME280;51842;47.450;8.654;2023-02-15T06:42:00;96776.25;;;-5.28;100.00
44297;BME280;51842;47.450;8.654;2023-02-15T06:44:25;96770.50;;;-5.22;100.00
44297;BME280;51842;47.450;8.654;2023-02-15T06:46:52;96769.41;;;-5.19;100.00
44297;BME280;51842;47.450;8.654;2023-02-15T06:49:18;96770.91;;;-5.17;100.00
44297;BME280;51842;47.450;8.654;2023-02-15T06:51:43;96770.38;;;-5.10;100.00
44297;BME280;51842;47.450;8.654;2023-02-15T06:54:09;96773.63;;;-5.08;100.00
44297;BME280;51842;47.450;8.654;2023-02-15T06:56:38;96774.16;;;-5.05;100.00
44297;BME280;51842;47.450;8.654;2023-02-15T06:59:04;96772.13;;;-5.01;100.00
44297;BME280;51842;47.450;8.654;2023-02-15T07:01:30;96772.69;;;-4.98;100.00
44297;BME280;51842;47.450;8.654;2023-02-15T07:03:56;96779.34;;;-4.95;100.00
44297;BME280;51842;47.450;8.654;2023-02-15T07:06:21;96773.22;;;-4.94;100.00
44297;BME280;51842;47.450;8.654;2023-02-15T07:08:50;96780.75;;;-4.91;100.00
44297;BME280;51842;47.450;8.654;2023-02-15T07:11:16;96782.53;;;-4.92;100.00
44297;BME280;51842;47.450;8.654;2023-02-15T07:14:00;96778.81;;;-4.89;100.00
44297;BME280;51842;47.450;8.654;2023-02-15T07:16:26;96781.13;;;-4.86;100.00
44297;BME280;51842;47.450;8.654;2023-02-15T07:18:55;96771.41;;;-4.84;100.00
44297;BME280;51842;47.450;8.654;2023-02-15T07:21:27;96764.44;;;-4.83;100.00
44297;BME280;51842;47.450;8.654;2023-02-15T07:23:57;96767.03;;;-4.83;100.00
44297;BME280;51842;47.450;8.654;2023-02-15T07:26:26;96761.84;;;-4.83;100.00
44297;BME280;51842;47.450;8.654;2023-02-15T07:28:54;96759.66;;;-4.78;100.00
44297;BME280;51842;47.450;8.654;2023-02-15T07:31:20;96763.88;;;-4.77;100.00
44297;BME280;51842;47.450;8.654;2023-02-15T07:33:48;96769.19;;;-4.69;100.00
44297;BME280;51842;47.450;8.654;2023-02-15T07:36:14;96765.47;;;-4.57;100.00
44297;BME280;51842;47.450;8.654;2023-02-15T07:38:41;96769.66;;;-4.36;100.00
44297;BME280;51842;47.450;8.654;2023-02-15T07:41:13;96768.63;;;-4.16;100.00
44297;BME280;51842;47.450;8.654;2023-02-15T07:43:43;96764.13;;;-3.96;100.00
44297;BME280;51842;47.450;8.654;2023-02-15T07:46:16;96779.28;;;-3.82;100.00
44297;BME280;51842;47.450;8.654;2023-02-15T07:48:43;96774.75;;;-3.62;100.00
44297;BME280;51842;47.450;8.654;2023-02-15T07:51:13;96774.19;;;-3.38;100.00
44297;BME280;51842;47.450;8.654;2023-02-15T07:53:42;96771.81;;;-3.13;100.00
44297;BME280;51842;47.450;8.654;2023-02-15T07:56:12;96773.06;;;-2.99;100.00
44297;BME280;51842;47.450;8.654;2023-02-15T07:58:42;96774.59;;;-2.89;100.00
44297;BME280;51842;47.450;8.654;2023-02-15T08:01:20;96776.09;;;-2.86;100.00
44297;BME280;51842;47.450;8.654;2023-02-15T08:03:48;96779.00;;;-2.89;100.00
44297;BME280;51842;47.450;8.654;2023-02-15T08:06:16;96770.22;;;-2.88;100.00
44297;BME280;51842;47.450;8.654;2023-02-15T08:08:43;96768.88;;;-2.92;100.00
44297;BME280;51842;47.450;8.654;2023-02-15T08:11:29;96762.00;;;-2.75;100.00
44297;BME280;51842;47.450;8.654;2023-02-15T08:14:10;96765.94;;;-2.71;100.00
44297;BME280;51842;47.450;8.654;2023-02-15T08:16:52;96759.63;;;-2.61;100.00
44297;BME280;51842;47.450;8.654;2023-02-15T08:19:26;96761.59;;;-2.63;100.00
44297;BME280;51842;47.450;8.654;2023-02-15T08:24:34;96752.91;;;-2.11;100.00
44297;BME280;51842;47.450;8.654;2023-02-15T08:27:01;96751.88;;;-1.84;100.00
44297;BME280;51842;47.450;8.654;2023-02-15T08:29:35;96742.44;;;-1.60;100.00
44297;BME280;51842;47.450;8.654;2023-02-15T08:32:07;96741.50;;;-1.35;100.00
44297;BME280;51842;47.450;8.654;2023-02-15T08:34:38;96739.56;;;-1.17;100.00
44297;BME280;51842;47.450;8.654;2023-02-15T08:37:05;96737.63;;;-1.06;100.00
44297;BME280;51842;47.450;8.654;2023-02-15T08:39:31;96750.69;;;-0.98;100.00
44297;BME280;51842;47.450;8.654;2023-02-15T08:41:58;96744.97;;;-0.85;100.00
44297;BME280;51842;47.450;8.654;2023-02-15T08:44:24;96752.63;;;-0.67;100.00
44297;BME280;51842;47.450;8.654;2023-02-15T08:46:50;96750.19;;;-0.53;100.00
44297;BME280;51842;47.450;8.654;2023-02-15T08:49:21;96749.47;;;-0.38;100.00
44297;BME280;51842;47.450;8.654;2023-02-15T08:51:49;96747.00;;;-0.24;99.37
44297;BME280;51842;47.450;8.654;2023-02-15T08:54:20;96752.16;;;-0.07;97.87
44297;BME280;51842;47.450;8.654;2023-02-15T08:56:47;96749.19;;;0.04;96.79
44297;BME280;51842;47.450;8.654;2023-02-15T08:59:22;96750.59;;;0.23;97.26
44297;BME280;51842;47.450;8.654;2023-02-15T09:01:51;96740.44;;;0.51;96.57
44297;BME280;51842;47.450;8.654;2023-02-15T09:04:20;96745.03;;;0.72;95.71
44297;BME280;51842;47.450;8.654;2023-02-15T09:06:52;96741.63;;;0.95;93.98
44297;BME280;51842;47.450;8.654;2023-02-15T09:09:20;96739.63;;;0.97;91.74
44297;BME280;51842;47.450;8.654;2023-02-15T09:11:50;96732.31;;;1.30;92.74
44297;BME280;51842;47.450;8.654;2023-02-15T09:14:20;96737.34;;;1.54;92.00
44297;BME280;51842;47.450;8.654;2023-02-15T09:16:48;96742.31;;;1.64;91.52
44297;BME280;51842;47.450;8.654;2023-02-15T09:19:18;96738.88;;;1.78;91.35
44297;BME280;51842;47.450;8.654;2023-02-15T09:21:47;96743.59;;;1.68;87.85
44297;BME280;51842;47.450;8.654;2023-02-15T09:24:17;96745.75;;;1.65;88.27
44297;BME280;51842;47.450;8.654;2023-02-15T09:26:47;96735.63;;;1.76;88.75
44297;BME280;51842;47.450;8.654;2023-02-15T09:29:15;96736.09;;;1.95;87.38
44297;BME280;51842;47.450;8.654;2023-02-15T09:31:46;96733.81;;;1.92;86.09
44297;BME280;51842;47.450;8.654;2023-02-15T09:34:20;96729.91;;;2.02;85.91
44297;BME280;51842;47.450;8.654;2023-02-15T09:36:48;96728.97;;;2.25;85.75
44297;BME280;51842;47.450;8.654;2023-02-15T09:39:25;96720.88;;;2.63;85.24
44297;BME280;51842;47.450;8.654;2023-02-15T09:51:17;96721.06;;;3.88;79.29
44297;BME280;51842;47.450;8.654;2023-02-15T09:54:41;96726.56;;;4.28;77.93
44297;BME280;51842;47.450;8.654;2023-02-15T10:27:21;96706.03;;;5.58;70.19
44297;BME280;51842;47.450;8.654;2023-02-15T10:30:13;96695.53;;;6.16;68.92
44297;BME280;51842;47.450;8.654;2023-02-15T10:33:06;96706.38;;;6.08;67.95
44297;BME280;51842;47.450;8.654;2023-02-15T10:39:25;96695.03;;;6.46;67.23
44297;BME280;51842;47.450;8.654;2023-02-15T10:55:34;96669.50;;;8.69;58.63
44297;BME280;51842;47.450;8.654;2023-02-15T10:58:44;96670.53;;;9.10;56.79
44297;BME280;51842;47.450;8.654;2023-02-15T11:01:27;96665.06;;;9.46;57.76
44297;BME280;51842;47.450;8.654;2023-02-15T11:04:51;96657.75;;;9.54;56.13
44297;BME280;51842;47.450;8.654;2023-02-15T11:07:35;96657.03;;;9.82;56.58
44297;BME280;51842;47.450;8.654;2023-02-15T11:13:36;96644.34;;;10.24;53.78
44297;BME280;51842;47.450;8.654;2023-02-15T11:16:29;96633.94;;;10.63;53.76
44297;BME280;51842;47.450;8.654;2023-02-15T11:19:28;96635.75;;;11.08;51.75
44297;BME280;51842;47.450;8.654;2023-02-15T11:22:02;96636.16;;;11.17;52.16
44297;BME280;51842;47.450;8.654;2023-02-15T11:24:40;96621.22;;;11.16;50.61
44297;BME280;51842;47.450;8.654;2023-02-15T11:30:22;96627.53;;;11.09;51.16
44297;BME280;51842;47.450;8.654;2023-02-15T11:33:02;96621.91;;;10.77;52.33
44297;BME280;51842;47.450;8.654;2023-02-15T11:35:53;96613.50;;;10.69;52.26
44297;BME280;51842;47.450;8.654;2023-02-15T11:38:39;96610.84;;;11.02;52.23
44297;BME280;51842;47.450;8.654;2023-02-15T11:41:21;96602.63;;;11.04;51.19
44297;BME280;51842;47.450;8.654;2023-02-15T11:44:22;96604.41;;;11.32;50.44
44297;BME280;51842;47.450;8.654;2023-02-15T11:47:12;96604.50;;;11.03;51.26
44297;BME280;51842;47.450;8.654;2023-02-15T11:49:41;96600.19;;;11.36;49.57
44297;BME280;51842;47.450;8.654;2023-02-15T11:52:27;96594.22;;;11.68;49.27
44297;BME280;51842;47.450;8.654;2023-02-15T11:54:56;96591.72;;;12.00;48.13
44297;BME280;51842;47.450;8.654;2023-02-15T11:57:40;96596.13;;;12.33;47.96
44297;BME280;51842;47.450;8.654;2023-02-15T12:00:41;96591.22;;;12.25;47.02
44297;BME280;51842;47.450;8.654;2023-02-15T12:06:04;96588.28;;;12.48;46.67
44297;BME280;51842;47.450;8.654;2023-02-15T12:09:05;96581.28;;;12.74;45.92
44297;BME280;51842;47.450;8.654;2023-02-15T12:11:39;96577.81;;;12.74;45.42
44297;BME280;51842;47.450;8.654;2023-02-15T12:14:11;96581.78;;;12.99;45.09
44297;BME280;51842;47.450;8.654;2023-02-15T12:16:46;96576.56;;;13.19;44.31
44297;BME280;51842;47.450;8.654;2023-02-15T12:19:39;96574.63;;;13.41;43.84
44297;BME280;51842;47.450;8.654;2023-02-15T12:22:23;96567.78;;;13.66;43.54
44297;BME280;51842;47.450;8.654;2023-02-15T12:24:55;96568.09;;;13.75;42.90
44297;BME280;51842;47.450;8.654;2023-02-15T12:27:35;96555.03;;;13.83;42.95
44297;BME280;51842;47.450;8.654;2023-02-15T12:30:32;96553.75;;;13.96;43.17
44297;BME280;51842;47.450;8.654;2023-02-15T12:36:26;96552.94;;;13.96;43.56
44297;BME280;51842;47.450;8.654;2023-02-15T12:39:31;96549.13;;;13.76;43.58
44297;BME280;51842;47.450;8.654;2023-02-15T12:42:04;96556.09;;;13.30;45.08
44297;BME280;51842;47.450;8.654;2023-02-15T12:44:37;96552.31;;;13.26;44.85
44297;BME280;51842;47.450;8.654;2023-02-15T12:49:38;96544.81;;;13.75;43.65
44297;BME280;51842;47.450;8.654;2023-02-15T12:52:25;96541.22;;;13.49;44.17
44297;BME280;51842;47.450;8.654;2023-02-15T12:55:27;96542.50;;;13.99;43.85
44297;BME280;51842;47.450;8.654;2023-02-15T12:58:08;96532.38;;;14.22;43.29
44297;BME280;51842;47.450;8.654;2023-02-15T13:00:34;96535.63;;;14.34;42.30
44297;BME280;51842;47.450;8.654;2023-02-15T13:03:01;96528.69;;;14.43;41.51
44297;BME280;51842;47.450;8.654;2023-02-15T13:05:38;96528.72;;;14.53;42.01
44297;BME280;51842;47.450;8.654;2023-02-15T13:08:31;96526.88;;;14.64;41.57
44297;BME280;51842;47.450;8.654;2023-02-15T13:11:12;96519.09;;;14.83;41.14
44297;BME280;51842;47.450;8.654;2023-02-15T13:14:13;96522.59;;;14.89;40.80
44297;BME280;51842;47.450;8.654;2023-02-15T13:16:46;96516.94;;;15.00;40.71
44297;BME280;51842;47.450;8.654;2023-02-15T13:19:52;96519.34;;;15.07;40.37
44297;BME280;51842;47.450;8.654;2023-02-15T13:25:21;96505.34;;;15.36;40.67
44297;BME280;51842;47.450;8.654;2023-02-15T13:28:01;96501.25;;;15.64;40.24
44297;BME280;51842;47.450;8.654;2023-02-15T13:30:45;96502.31;;;15.68;39.61
44297;BME280;51842;47.450;8.654;2023-02-15T13:51:58;96494.47;;;15.82;40.70
44297;BME280;51842;47.450;8.654;2023-02-15T13:55:31;96493.53;;;15.42;41.56
44297;BME280;51842;47.450;8.654;2023-02-15T14:09:57;96484.56;;;16.27;40.33
44297;BME280;51842;47.450;8.654;2023-02-15T14:22:29;96490.53;;;16.18;40.43
44297;BME280;51842;47.450;8.654;2023-02-15T14:25:57;96492.50;;;15.98;40.61
44297;BME280;51842;47.450;8.654;2023-02-15T14:31:45;96489.00;;;16.02;41.08
44297;BME280;51842;47.450;8.654;2023-02-15T14:35:05;96493.97;;;15.75;41.15
44297;BME280;51842;47.450;8.654;2023-02-15T14:38:13;96484.84;;;15.65;40.78
44297;BME280;51842;47.450;8.654;2023-02-15T14:49:37;96488.91;;;15.68;39.90
44297;BME280;51842;47.450;8.654;2023-02-15T14:52:10;96480.91;;;15.42;39.84
44297;BME280;51842;47.450;8.654;2023-02-15T14:59:53;96480.72;;;15.88;39.44
44297;BME280;51842;47.450;8.654;2023-02-15T15:05:52;96475.56;;;16.02;38.18
44297;BME280;51842;47.450;8.654;2023-02-15T15:08:41;96475.09;;;15.90;37.66
44297;BME280;51842;47.450;8.654;2023-02-15T15:14:03;96458.91;;;16.00;38.44
44297;BME280;51842;47.450;8.654;2023-02-15T15:22:33;96467.13;;;16.19;38.34
44297;BME280;51842;47.450;8.654;2023-02-15T15:28:06;96475.19;;;15.64;39.67
44297;BME280;51842;47.450;8.654;2023-02-15T15:49:35;96463.78;;;13.32;44.39
44297;BME280;51842;47.450;8.654;2023-02-15T15:52:17;96467.47;;;12.84;45.78
44297;BME280;51842;47.450;8.654;2023-02-15T15:54:49;96473.78;;;12.67;46.48
44297;BME280;51842;47.450;8.654;2023-02-15T15:57:39;96473.81;;;12.40;47.80
44297;BME280;51842;47.450;8.654;2023-02-15T16:03:29;96479.56;;;12.00;49.17
44297;BME280;51842;47.450;8.654;2023-02-15T16:05:59;96476.16;;;11.82;49.62
44297;BME280;51842;47.450;8.654;2023-02-15T16:08:38;96480.56;;;11.72;49.86
44297;BME280;51842;47.450;8.654;2023-02-15T16:11:29;96482.63;;;11.43;50.93
44297;BME280;51842;47.450;8.654;2023-02-15T16:13:56;96478.34;;;11.20;51.99
44297;BME280;51842;47.450;8.654;2023-02-15T16:16:28;96481.59;;;11.05;51.96
44297;BME280;51842;47.450;8.654;2023-02-15T16:18:57;96486.06;;;10.82;53.27
44297;BME280;51842;47.450;8.654;2023-02-15T16:21:34;96486.59;;;10.62;53.65
44297;BME280;51842;47.450;8.654;2023-02-15T16:27:41;96492.44;;;10.02;55.97
44297;BME280;51842;47.450;8.654;2023-02-15T16:30:33;96485.19;;;9.69;56.91
44297;BME280;51842;47.450;8.654;2023-02-15T16:33:17;96486.69;;;9.24;57.43
44297;BME280;51842;47.450;8.654;2023-02-15T16:35:59;96486.13;;;8.87;58.67
44297;BME280;51842;47.450;8.654;2023-02-15T16:41:26;96494.75;;;8.17;61.28
44297;BME280;51842;47.450;8.654;2023-02-15T16:43:59;96496.63;;;7.86;62.00
44297;BME280;51842;47.450;8.654;2023-02-15T16:46:42;96500.69;;;7.40;63.98
44297;BME280;51842;47.450;8.654;2023-02-15T16:49:26;96509.72;;;7.14;65.20
44297;BME280;51842;47.450;8.654;2023-02-15T16:52:03;96511.88;;;6.81;66.69
44297;BME280;51842;47.450;8.654;2023-02-15T16:54:33;96512.53;;;6.51;67.65
44297;BME280;51842;47.450;8.654;2023-02-15T16:57:02;96509.50;;;6.22;68.83
44297;BME280;51842;47.450;8.654;2023-02-15T16:59:34;96518.19;;;5.98;70.10